createdAt,value
2018-07-01T00:02:37.189Z,100173.92
2018-07-01T00:05:40.295Z,100168.90
2018-07-01T00:08:43.366Z,100167.67
2018-07-01T00:11:46.365Z,100168.72
2018-07-01T00:14:49.338Z,100171.31
2018-07-01T00:17:52.289Z,100168.32
2018-07-01T00:20:55.229Z,100170.19
2018-07-01T00:23:58.168Z,100160.09
2018-07-01T00:27:01.115Z,100164.14
2018-07-01T00:30:05.388Z,100156.45
2018-07-01T00:33:08.594Z,100158.13
2018-07-01T00:36:11.545Z,100160.11
2018-07-01T00:39:14.575Z,100168.27
2018-07-01T00:42:17.539Z,100160.66
2018-07-01T00:45:20.473Z,100164.85
2018-07-01T00:48:23.441Z,100143.72
2018-07-01T00:51:26.363Z,100162.89
2018-07-01T00:54:29.342Z,100167.53
2018-07-01T00:57:32.281Z,100161.93
2018-07-01T01:00:35.320Z,100161.02
2018-07-01T01:03:38.417Z,100160.31
2018-07-01T01:06:41.335Z,100156.39
2018-07-01T01:09:44.458Z,100151.25
2018-07-01T01:12:47.412Z,100158.44
2018-07-01T01:15:50.413Z,100165.72
2018-07-01T01:18:53.340Z,100170.92
2018-07-01T01:21:56.283Z,100172.83
2018-07-01T01:24:59.202Z,100170.70
2018-07-01T01:28:02.142Z,100164.09
2018-07-01T01:31:05.272Z,100166.11
2018-07-01T01:34:08.423Z,100166.22
2018-07-01T01:37:11.428Z,100167.27
2018-07-01T01:40:16.481Z,100164.55
2018-07-01T01:43:27.868Z,100169.84
2018-07-01T01:46:35.338Z,100164.16
2018-07-01T01:49:43.589Z,100164.62
2018-07-01T01:53:50.663Z,100173.28
2018-07-01T01:57:14.281Z,100171.54
2018-07-01T02:00:25.803Z,100162.30
2018-07-01T02:03:35.975Z,100168.30
2018-07-01T02:06:42.070Z,100175.38
2018-07-01T02:09:45.094Z,100170.39
2018-07-01T02:12:48.091Z,100167.70
2018-07-01T02:15:54.726Z,100170.67
2018-07-01T02:18:57.804Z,100169.13
2018-07-01T02:22:02.467Z,100171.14
2018-07-01T02:25:09.313Z,100171.11
2018-07-01T02:28:12.423Z,100171.94
2018-07-01T02:31:15.543Z,100169.48
2018-07-01T02:34:18.488Z,100172.69
2018-07-01T02:37:21.624Z,100177.82
2018-07-01T02:40:24.610Z,100178.48
2018-07-01T02:43:27.569Z,100175.47
2018-07-01T02:46:30.550Z,100177.61
2018-07-01T02:49:33.614Z,100177.73
2018-07-01T02:52:37.116Z,100176.48
2018-07-01T02:55:40.262Z,100181.69
2018-07-01T02:58:43.473Z,100180.77
2018-07-01T03:01:46.437Z,100186.80
2018-07-01T03:04:49.389Z,100190.03
2018-07-01T03:10:48.853Z,100195.78
2018-07-01T03:13:51.913Z,100195.66
2018-07-01T03:16:54.853Z,100195.73
2018-07-01T03:19:57.806Z,100201.64
2018-07-01T03:23:00.747Z,100196.47
2018-07-01T03:26:03.723Z,100197.71
2018-07-01T03:29:06.732Z,100197.27
2018-07-01T03:32:09.754Z,100206.56
2018-07-01T03:35:12.916Z,100208.16
2018-07-01T03:38:15.837Z,100209.09
2018-07-01T03:41:18.892Z,100211.64
2018-07-01T03:44:21.853Z,100215.75
2018-07-01T03:47:24.781Z,100222.39
2018-07-01T03:50:27.805Z,100222.11
2018-07-01T03:53:30.774Z,100217.90
2018-07-01T03:56:33.797Z,100218.05
2018-07-01T03:59:36.782Z,100220.37
2018-07-01T04:02:39.716Z,100234.91
2018-07-01T04:05:42.655Z,100221.91
2018-07-01T04:08:45.662Z,100230.83
2018-07-01T04:11:48.602Z,100227.09
2018-07-01T04:14:51.514Z,100230.36
2018-07-01T04:17:54.428Z,100235.06
2018-07-01T04:20:57.383Z,100228.43
2018-07-01T04:24:00.308Z,100229.88
2018-07-01T04:27:03.481Z,100236.02
2018-07-01T04:30:06.529Z,100235.93
2018-07-01T04:33:09.492Z,100234.91
2018-07-01T04:36:12.430Z,100237.73
2018-07-01T04:39:15.409Z,100240.44
2018-07-01T04:42:18.337Z,100237.83
2018-07-01T04:45:21.246Z,100239.92
2018-07-01T04:48:24.188Z,100248.46
2018-07-01T04:51:27.207Z,100242.48
2018-07-01T04:54:30.142Z,100258.63
2018-07-01T04:57:33.173Z,100246.10
2018-07-01T05:00:36.429Z,100245.95
2018-07-01T05:03:39.428Z,100247.52
2018-07-01T05:06:42.379Z,100248.30
2018-07-01T05:09:45.382Z,100254.15
2018-07-01T05:12:48.331Z,100253.28
2018-07-01T05:15:51.452Z,100259.52
2018-07-01T05:18:54.358Z,100263.47
2018-07-01T05:21:57.274Z,100264.88
2018-07-01T05:25:00.204Z,100265.28
2018-07-01T05:28:03.182Z,100266.20
2018-07-01T05:31:06.383Z,100275.34
2018-07-01T05:34:09.329Z,100271.66
2018-07-01T05:37:12.307Z,100271.15
2018-07-01T05:40:15.304Z,100268.39
2018-07-01T05:43:18.314Z,100274.78
2018-07-01T05:46:21.337Z,100263.07
2018-07-01T05:49:24.301Z,100262.81
2018-07-01T05:52:27.196Z,100272.30
2018-07-01T05:55:30.108Z,100273.94
2018-07-01T05:58:33.067Z,100274.42
2018-07-01T06:01:36.009Z,100277.17
2018-07-01T06:04:38.930Z,100268.63
2018-07-01T06:07:41.967Z,100268.77
2018-07-01T06:10:45.221Z,100269.16
2018-07-01T06:13:48.153Z,100269.56
2018-07-01T06:16:51.128Z,100279.59
2018-07-01T06:19:54.033Z,100280.59
2018-07-01T06:22:56.976Z,100276.58
2018-07-01T06:25:59.990Z,100270.86
2018-07-01T06:29:03.051Z,100270.97
2018-07-01T06:32:06.700Z,100275.20
2018-07-01T06:35:10.222Z,100280.33
2018-07-01T06:38:13.427Z,100277.41
2018-07-01T06:41:16.573Z,100276.80
2018-07-01T06:44:20.144Z,100268.05
2018-07-01T06:47:23.097Z,100271.79
2018-07-01T06:50:26.040Z,100282.16
2018-07-01T06:53:29.251Z,100278.95
2018-07-01T06:56:32.269Z,100274.87
2018-07-01T06:59:35.495Z,100269.17
2018-07-01T07:02:38.670Z,100268.99
2018-07-01T07:05:41.578Z,100268.77
2018-07-01T07:08:44.489Z,100282.20
2018-07-01T07:11:47.414Z,100287.03
2018-07-01T07:14:50.356Z,100274.18
2018-07-01T07:17:53.283Z,100280.22
2018-07-01T07:20:56.236Z,100282.14
2018-07-01T07:23:59.320Z,100276.62
2018-07-01T07:27:08.042Z,100280.16
2018-07-01T07:30:11.965Z,100282.06
2018-07-01T07:33:15.945Z,100285.83
2018-07-01T07:36:19.775Z,100277.91
2018-07-01T07:39:22.769Z,100296.72
2018-07-01T07:42:26.113Z,100288.13
2018-07-01T07:45:29.150Z,100288.86
2018-07-01T07:48:32.114Z,100291.14
2018-07-01T07:51:35.426Z,100291.23
2018-07-01T07:54:38.861Z,100286.54
2018-07-01T07:57:42.066Z,100290.84
2018-07-01T08:00:44.977Z,100285.09
2018-07-01T08:03:47.918Z,100295.29
2018-07-01T08:06:50.848Z,100295.35
2018-07-01T08:09:53.783Z,100289.70
2018-07-01T08:12:56.739Z,100286.22
2018-07-01T08:15:59.662Z,100289.34
2018-07-01T08:19:02.698Z,100291.91
2018-07-01T08:22:06.129Z,100301.28
2018-07-01T08:25:09.235Z,100296.95
2018-07-01T08:28:12.330Z,100289.74
2018-07-01T08:31:15.288Z,100286.96
2018-07-01T08:34:18.221Z,100289.63
2018-07-01T08:37:21.949Z,100297.19
2018-07-01T08:40:24.920Z,100310.09
2018-07-01T08:43:28.378Z,100298.37
2018-07-01T08:46:31.506Z,100302.47
2018-07-01T08:49:34.774Z,100308.38
2018-07-01T08:52:38.042Z,100306.56
2018-07-01T08:55:41.271Z,100302.80
2018-07-01T08:58:44.403Z,100298.13
2018-07-01T09:01:48.058Z,100296.08
2018-07-01T09:04:51.192Z,100292.45
2018-07-01T09:07:54.252Z,100292.05
2018-07-01T09:10:57.417Z,100297.18
2018-07-01T09:14:00.385Z,100296.95
2018-07-01T09:17:03.743Z,100286.09
2018-07-01T09:20:06.989Z,100297.78
2018-07-01T09:23:10.198Z,100290.03
2018-07-01T09:26:14.564Z,100294.57
2018-07-01T09:29:17.749Z,100289.87
2018-07-01T09:32:20.952Z,100286.98
2018-07-01T09:35:24.456Z,100290.12
2018-07-01T09:38:29.722Z,100289.34
2018-07-01T09:41:32.791Z,100292.09
2018-07-01T09:44:35.926Z,100284.97
2018-07-01T09:47:38.941Z,100284.30
2018-07-01T09:50:41.904Z,100284.70
2018-07-01T09:53:45.049Z,100277.92
2018-07-01T09:56:48.431Z,100283.27
2018-07-01T09:59:51.590Z,100290.84
2018-07-01T10:02:54.522Z,100273.81
2018-07-01T10:05:57.455Z,100278.89
2018-07-01T10:09:00.420Z,100275.98
2018-07-01T10:12:03.642Z,100276.11
2018-07-01T10:15:06.753Z,100265.84
2018-07-01T10:18:09.978Z,100260.98
2018-07-01T10:21:13.118Z,100260.62
2018-07-01T10:24:16.711Z,100262.22
2018-07-01T10:27:19.825Z,100249.88
2018-07-01T10:30:22.959Z,100242.87
2018-07-01T10:33:26.150Z,100251.41
2018-07-01T10:36:29.452Z,100266.53
2018-07-01T10:39:32.719Z,100251.77
2018-07-01T10:42:36.295Z,100253.24
2018-07-01T10:45:39.516Z,100258.47
2018-07-01T10:48:42.655Z,100252.19
2018-07-01T10:51:45.807Z,100258.74
2018-07-01T10:54:48.952Z,100265.27
2018-07-01T10:57:52.130Z,100255.61
2018-07-01T11:00:55.054Z,100246.94
2018-07-01T11:03:58.026Z,100258.20
2018-07-01T11:07:00.981Z,100261.91
2018-07-01T11:10:04.049Z,100252.50
2018-07-01T11:13:06.999Z,100251.30
2018-07-01T11:16:09.976Z,100244.34
2018-07-01T11:19:12.874Z,100249.43
2018-07-01T11:22:15.837Z,100240.63
2018-07-01T11:25:18.840Z,100234.72
2018-07-01T11:28:21.836Z,100233.14
2018-07-01T11:31:24.772Z,100239.18
2018-07-01T11:34:27.716Z,100231.55
2018-07-01T11:37:30.674Z,100221.33
2018-07-01T11:40:33.611Z,100225.45
2018-07-01T11:43:36.546Z,100216.27
2018-07-01T11:46:39.515Z,100225.05
2018-07-01T11:49:42.954Z,100214.27
2018-07-01T11:52:45.876Z,100219.13
2018-07-01T11:55:48.797Z,100166.63
2018-07-01T11:58:51.761Z,100221.95
2018-07-01T12:01:55.124Z,100216.02
2018-07-01T12:05:16.204Z,100204.84
2018-07-01T12:08:00.950Z,100200.00
2018-07-01T12:11:03.902Z,100199.70
2018-07-01T12:14:06.852Z,100195.42
2018-07-01T12:17:09.846Z,100186.60
2018-07-01T12:20:12.777Z,100190.22
2018-07-01T12:23:15.871Z,100185.21
2018-07-01T12:26:18.727Z,100184.17
2018-07-01T12:29:21.661Z,100186.90
2018-07-01T12:32:24.561Z,100197.91
2018-07-01T12:35:28.511Z,100192.34
2018-07-01T12:38:31.482Z,100190.31
2018-07-01T12:41:34.405Z,100190.60
2018-07-01T12:44:37.409Z,100187.40
2018-07-01T12:47:40.693Z,100182.11
2018-07-01T12:50:43.589Z,100179.05
2018-07-01T12:53:46.537Z,100175.39
2018-07-01T12:56:49.443Z,100172.98
2018-07-01T12:59:52.425Z,100171.44
2018-07-01T13:02:55.417Z,100156.75
2018-07-01T13:05:58.370Z,100160.52
2018-07-01T13:09:01.339Z,100160.45
2018-07-01T13:12:04.392Z,100165.22
2018-07-01T13:15:07.392Z,100155.64
2018-07-01T13:18:10.407Z,100152.92
2018-07-01T13:21:13.407Z,100159.44
2018-07-01T13:24:16.525Z,100031.07
2018-07-01T13:27:19.501Z,100149.20
2018-07-01T13:30:22.518Z,100153.06
2018-07-01T13:33:25.448Z,100147.13
2018-07-01T13:36:28.444Z,100145.09
2018-07-01T13:39:31.377Z,100138.48
2018-07-01T13:42:34.306Z,100142.34
2018-07-01T13:45:37.237Z,100139.71
2018-07-01T13:48:40.171Z,100138.00
2018-07-01T13:51:43.126Z,100134.76
2018-07-01T13:54:46.029Z,100136.00
2018-07-01T13:57:48.958Z,100134.77
2018-07-01T14:00:51.940Z,100130.13
2018-07-01T14:03:54.929Z,100130.59
2018-07-01T14:06:57.886Z,100119.48
2018-07-01T14:10:00.896Z,100123.45
2018-07-01T14:13:03.992Z,100115.82
2018-07-01T14:16:06.964Z,100108.11
2018-07-01T14:19:09.914Z,100102.59
2018-07-01T14:22:12.839Z,100099.52
2018-07-01T14:25:15.789Z,100107.11
2018-07-01T14:28:18.724Z,100019.64
2018-07-01T14:31:21.719Z,100095.53
2018-07-01T14:34:24.633Z,100096.40
2018-07-01T14:37:27.588Z,100097.66
2018-07-01T14:40:30.531Z,100101.53
2018-07-01T14:43:33.463Z,100089.94
2018-07-01T14:46:36.397Z,100088.83
2018-07-01T14:49:39.286Z,100083.39
2018-07-01T14:52:42.216Z,100078.09
2018-07-01T14:55:45.137Z,100074.79
2018-07-01T14:58:48.121Z,100075.70
2018-07-01T15:01:51.001Z,100086.84
2018-07-01T15:04:53.948Z,100078.14
2018-07-01T15:07:56.908Z,100077.66
2018-07-01T15:10:59.830Z,100079.42
2018-07-01T15:14:03.462Z,100085.38
2018-07-01T15:17:06.348Z,100081.78
2018-07-01T15:20:09.292Z,100082.25
2018-07-01T15:23:12.245Z,100077.48
2018-07-01T15:26:15.170Z,100076.90
2018-07-01T15:29:18.277Z,100076.36
2018-07-01T15:32:21.052Z,100074.42
2018-07-01T15:35:23.978Z,100067.16
2018-07-01T15:38:26.858Z,100061.77
2018-07-01T15:41:29.799Z,100052.38
2018-07-01T15:44:32.743Z,100059.69
2018-07-01T15:47:35.690Z,100047.36
2018-07-01T15:50:38.564Z,100042.52
2018-07-01T15:53:41.529Z,100049.10
2018-07-01T15:56:44.466Z,100047.04
2018-07-01T15:59:47.429Z,100037.34
2018-07-01T16:02:50.364Z,100042.47
2018-07-01T16:05:53.301Z,100041.79
2018-07-01T16:08:56.272Z,100042.45
2018-07-01T16:11:59.232Z,100042.05
2018-07-01T16:15:02.213Z,100044.44
2018-07-01T16:18:05.222Z,100042.38
2018-07-01T16:21:08.149Z,100036.39
2018-07-01T16:24:11.098Z,100037.11
2018-07-01T16:27:15.408Z,100037.39
2018-07-01T16:30:18.329Z,100037.75
2018-07-01T16:33:21.209Z,100036.17
2018-07-01T16:36:24.269Z,100028.55
2018-07-01T16:39:27.190Z,100029.72
2018-07-01T16:42:30.102Z,100040.97
2018-07-01T16:45:39.669Z,100038.39
2018-07-01T16:48:42.641Z,100036.53
2018-07-01T16:51:45.600Z,100042.22
2018-07-01T16:54:48.517Z,100045.66
2018-07-01T16:57:51.453Z,100047.14
2018-07-01T17:00:54.353Z,100046.55
2018-07-01T17:03:57.251Z,100040.73
2018-07-01T17:07:00.166Z,100045.48
2018-07-01T17:10:03.139Z,100047.77
2018-07-01T17:13:06.188Z,100051.22
2018-07-01T17:16:09.128Z,100045.36
2018-07-01T17:19:12.060Z,100055.19
2018-07-01T17:22:15.144Z,100044.52
2018-07-01T17:25:18.041Z,100046.24
2018-07-01T17:28:22.604Z,100053.12
2018-07-01T17:31:31.169Z,100041.92
2018-07-01T17:34:34.083Z,100044.38
2018-07-01T17:37:37.009Z,100042.30
2018-07-01T17:40:40.005Z,100048.52
2018-07-01T17:43:42.935Z,100044.16
2018-07-01T17:46:45.852Z,100039.75
2018-07-01T17:49:48.747Z,100041.09
2018-07-01T17:52:51.647Z,100048.12
2018-07-01T17:55:54.564Z,100040.09
2018-07-01T17:58:57.513Z,100040.56
2018-07-01T18:02:00.468Z,100047.33
2018-07-01T18:05:03.457Z,100042.92
2018-07-01T18:08:06.408Z,100043.65
2018-07-01T18:11:09.399Z,100051.58
2018-07-01T18:14:12.313Z,100043.84
2018-07-01T18:17:15.233Z,100044.84
2018-07-01T18:20:18.144Z,100041.38
2018-07-01T18:23:53.698Z,100048.00
2018-07-01T18:26:24.656Z,100049.47
2018-07-01T18:29:27.620Z,100046.81
2018-07-01T18:32:30.580Z,100050.08
2018-07-01T18:35:33.658Z,100047.06
2018-07-01T18:38:36.569Z,100048.49
2018-07-01T18:41:39.495Z,100047.86
2018-07-01T18:44:42.423Z,100045.03
2018-07-01T18:47:45.513Z,100051.13
2018-07-01T18:50:48.445Z,100051.46
2018-07-01T18:53:51.345Z,100054.61
2018-07-01T18:56:54.274Z,100056.95
2018-07-01T18:59:57.167Z,100054.23
2018-07-01T19:03:00.101Z,100033.93
2018-07-01T19:06:03.034Z,100055.59
2018-07-01T19:09:07.353Z,100051.44
2018-07-01T19:12:10.344Z,100058.38
2018-07-01T19:15:13.274Z,100059.80
2018-07-01T19:18:16.227Z,100054.97
2018-07-01T19:21:19.187Z,100058.41
2018-07-01T19:24:22.097Z,100062.26
2018-07-01T19:27:25.049Z,100071.41
2018-07-01T19:30:28.091Z,100071.87
2018-07-01T19:33:31.027Z,100075.66
2018-07-01T19:36:33.953Z,100069.03
2018-07-01T19:39:36.890Z,100085.36
2018-07-01T19:42:39.921Z,100080.91
2018-07-01T19:45:42.815Z,100087.75
2018-07-01T19:48:45.788Z,100092.97
2018-07-01T19:51:48.678Z,100101.32
2018-07-01T19:54:51.593Z,100098.12
2018-07-01T19:57:54.556Z,100098.52
2018-07-01T20:00:57.502Z,100107.27
2018-07-01T20:04:00.437Z,100108.78
2018-07-01T20:07:03.395Z,100110.38
2018-07-01T20:10:06.494Z,100114.20
2018-07-01T20:13:09.438Z,100111.97
2018-07-01T20:16:12.489Z,100112.45
2018-07-01T20:19:15.429Z,100119.56
2018-07-01T20:22:18.364Z,100120.91
2018-07-01T20:25:21.284Z,100124.29
2018-07-01T20:28:24.275Z,100133.31
2018-07-01T20:31:27.174Z,100133.34
2018-07-01T20:34:30.100Z,100131.50
2018-07-01T20:37:33.065Z,100129.14
2018-07-01T20:40:36.021Z,100139.23
2018-07-01T20:43:39.418Z,100138.73
2018-07-01T20:46:42.365Z,100137.16
2018-07-01T20:49:45.345Z,100139.58
2018-07-01T20:52:48.249Z,100138.87
2018-07-01T20:55:51.184Z,100147.41
2018-07-01T20:58:54.893Z,100144.45
2018-07-01T21:01:57.812Z,100148.87
2018-07-01T21:05:00.829Z,100134.31
2018-07-01T21:08:04.027Z,100135.34
2018-07-01T21:11:07.380Z,100141.02
2018-07-01T21:14:10.553Z,100135.93
2018-07-01T21:17:13.609Z,100135.28
2018-07-01T21:20:18.051Z,100138.36
2018-07-01T21:23:21.063Z,100137.75
2018-07-01T21:26:24.006Z,100141.66
2018-07-01T21:29:28.939Z,100150.67
2018-07-01T21:32:32.288Z,100138.63
2018-07-01T21:35:35.436Z,100152.55
2018-07-01T21:38:38.510Z,100157.18
2018-07-01T21:41:41.492Z,100161.41
2018-07-01T21:44:46.364Z,100157.28
2018-07-01T21:47:49.336Z,100151.08
2018-07-01T21:50:52.290Z,100157.05
2018-07-01T21:53:55.314Z,100157.33
2018-07-01T21:56:58.344Z,100166.66
2018-07-01T22:00:02.454Z,100164.55
2018-07-01T22:03:05.710Z,100166.83
2018-07-01T22:06:08.938Z,100129.31
2018-07-01T22:09:12.021Z,100172.77
2018-07-01T22:12:32.344Z,100177.06
2018-07-01T22:15:52.528Z,100170.98
2018-07-01T22:18:55.531Z,100174.84
2018-07-01T22:21:59.484Z,100170.55
2018-07-01T22:25:02.560Z,100163.55
2018-07-01T22:28:05.661Z,100163.80
2018-07-01T22:31:08.615Z,100173.70
2018-07-01T22:34:12.873Z,100175.99
2018-07-01T22:37:15.868Z,100173.66
2018-07-01T22:40:18.863Z,100166.34
2018-07-01T22:43:21.805Z,100173.48
2018-07-01T22:46:24.855Z,100165.27
2018-07-01T22:49:27.769Z,100171.73
2018-07-01T22:52:30.711Z,100179.45
2018-07-01T22:55:33.736Z,100175.84
2018-07-01T22:58:36.798Z,100180.31
2018-07-01T23:03:49.582Z,100187.56
2018-07-01T23:06:52.424Z,100179.05
2018-07-01T23:09:55.380Z,100175.36
2018-07-01T23:12:58.789Z,100171.68
2018-07-01T23:16:01.770Z,100175.56
2018-07-01T23:19:04.929Z,100179.78
2018-07-01T23:22:07.886Z,100174.38
2018-07-01T23:25:11.810Z,100179.97
2018-07-01T23:28:14.793Z,100175.73
2018-07-01T23:31:17.786Z,100174.20
2018-07-01T23:34:20.839Z,100093.58
2018-07-01T23:37:23.833Z,100172.66
2018-07-01T23:40:26.841Z,100171.89
2018-07-01T23:43:29.753Z,100172.75
2018-07-01T23:46:32.671Z,100172.06
2018-07-01T23:49:35.669Z,100166.97
2018-07-01T23:52:38.797Z,100168.05
2018-07-01T23:55:41.793Z,100166.70
2018-07-01T23:58:44.717Z,100164.02
